sensor_id;sensor_type;location;lat;lon;timestamp;temperature;humidity
30520;DHT22;17300;50.374;8.006;2022-07-23T00:01:53;25.00;51.90
30520;DHT22;17300;50.374;8.006;2022-07-23T00:04:20;24.90;52.00
30520;DHT22;17300;50.374;8.006;2022-07-23T00:06:46;24.90;52.30
30520;DHT22;17300;50.374;8.006;2022-07-23T00:09:13;24.90;52.50
30520;DHT22;17300;50.374;8.006;2022-07-23T00:11:40;24.80;52.60
30520;DHT22;17300;50.374;8.006;2022-07-23T00:14:08;24.80;52.80
30520;DHT22;17300;50.374;8.006;2022-07-23T00:16:34;24.80;53.10
30520;DHT22;17300;50.374;8.006;2022-07-23T00:19:02;24.70;53.00
30520;DHT22;17300;50.374;8.006;2022-07-23T00:21:29;24.70;53.10
30520;DHT22;17300;50.374;8.006;2022-07-23T00:23:56;24.70;53.20
30520;DHT22;17300;50.374;8.006;2022-07-23T00:26:23;24.70;53.40
30520;DHT22;17300;50.374;8.006;2022-07-23T00:28:49;24.70;53.60
30520;DHT22;17300;50.374;8.006;2022-07-23T00:31:17;24.60;53.60
30520;DHT22;17300;50.374;8.006;2022-07-23T00:33:44;24.60;53.70
30520;DHT22;17300;50.374;8.006;2022-07-23T00:36:11;24.60;53.80
30520;DHT22;17300;50.374;8.006;2022-07-23T00:38:38;24.60;53.80
30520;DHT22;17300;50.374;8.006;2022-07-23T00:41:05;24.50;53.80
30520;DHT22;17300;50.374;8.006;2022-07-23T00:43:31;24.50;54.00
30520;DHT22;17300;50.374;8.006;2022-07-23T00:45:58;24.50;54.10
30520;DHT22;17300;50.374;8.006;2022-07-23T00:48:26;24.50;54.30
30520;DHT22;17300;50.374;8.006;2022-07-23T00:50:53;24.50;54.40
30520;DHT22;17300;50.374;8.006;2022-07-23T00:53:20;24.40;54.30
30520;DHT22;17300;50.374;8.006;2022-07-23T00:55:47;24.40;54.40
30520;DHT22;17300;50.374;8.006;2022-07-23T00:58:15;24.30;54.30
30520;DHT22;17300;50.374;8.006;2022-07-23T01:00:42;24.30;54.40
30520;DHT22;17300;50.374;8.006;2022-07-23T01:03:09;24.20;54.40
30520;DHT22;17300;50.374;8.006;2022-07-23T01:05:37;24.20;54.60
30520;DHT22;17300;50.374;8.006;2022-07-23T01:08:06;24.10;54.80
30520;DHT22;17300;50.374;8.006;2022-07-23T01:10:33;24.10;54.90
30520;DHT22;17300;50.374;8.006;2022-07-23T01:13:01;24.10;54.80
30520;DHT22;17300;50.374;8.006;2022-07-23T01:15:29;24.00;55.00
30520;DHT22;17300;50.374;8.006;2022-07-23T01:17:56;24.00;55.10
30520;DHT22;17300;50.374;8.006;2022-07-23T01:20:23;24.00;55.10
30520;DHT22;17300;50.374;8.006;2022-07-23T01:22:51;24.00;55.20
30520;DHT22;17300;50.374;8.006;2022-07-23T01:25:18;24.00;55.40
30520;DHT22;17300;50.374;8.006;2022-07-23T01:27:45;23.90;56.00
30520;DHT22;17300;50.374;8.006;2022-07-23T01:30:13;23.90;55.30
30520;DHT22;17300;50.374;8.006;2022-07-23T01:32:40;23.90;55.30
30520;DHT22;17300;50.374;8.006;2022-07-23T01:35:07;23.90;55.30
30520;DHT22;17300;50.374;8.006;2022-07-23T01:37:34;23.80;55.20
30520;DHT22;17300;50.374;8.006;2022-07-23T01:40:03;23.80;55.40
30520;DHT22;17300;50.374;8.006;2022-07-23T01:42:31;23.80;55.70
30520;DHT22;17300;50.374;8.006;2022-07-23T01:44:57;23.80;55.70
30520;DHT22;17300;50.374;8.006;2022-07-23T01:47:25;23.80;55.90
30520;DHT22;17300;50.374;8.006;2022-07-23T01:49:52;23.70;56.00
30520;DHT22;17300;50.374;8.006;2022-07-23T01:52:19;23.70;56.10
30520;DHT22;17300;50.374;8.006;2022-07-23T01:54:46;23.80;56.10
30520;DHT22;17300;50.374;8.006;2022-07-23T01:57:14;23.80;56.00
30520;DHT22;17300;50.374;8.006;2022-07-23T01:59:40;23.80;56.10
30520;DHT22;17300;50.374;8.006;2022-07-23T02:02:07;23.70;55.90
30520;DHT22;17300;50.374;8.006;2022-07-23T02:04:34;23.70;55.90
30520;DHT22;17300;50.374;8.006;2022-07-23T02:07:02;23.70;55.80
30520;DHT22;17300;50.374;8.006;2022-07-23T02:09:29;23.70;55.80
30520;DHT22;17300;50.374;8.006;2022-07-23T02:11:56;23.70;55.60
30520;DHT22;17300;50.374;8.006;2022-07-23T02:14:25;23.60;55.60
30520;DHT22;17300;50.374;8.006;2022-07-23T02:16:51;23.60;55.90
30520;DHT22;17300;50.374;8.006;2022-07-23T02:19:18;23.50;55.80
30520;DHT22;17300;50.374;8.006;2022-07-23T02:21:45;23.50;55.80
30520;DHT22;17300;50.374;8.006;2022-07-23T02:24:11;23.50;55.90
30520;DHT22;17300;50.374;8.006;2022-07-23T02:26:38;23.50;55.90
30520;DHT22;17300;50.374;8.006;2022-07-23T02:29:05;23.50;56.00
30520;DHT22;17300;50.374;8.006;2022-07-23T02:31:34;23.40;55.90
30520;DHT22;17300;50.374;8.006;2022-07-23T02:34:01;23.30;56.10
30520;DHT22;17300;50.374;8.006;2022-07-23T02:36:28;23.30;56.10
30520;DHT22;17300;50.374;8.006;2022-07-23T02:38:55;23.30;56.20
30520;DHT22;17300;50.374;8.006;2022-07-23T02:41:22;23.20;56.20
30520;DHT22;17300;50.374;8.006;2022-07-23T02:43:49;23.20;56.40
30520;DHT22;17300;50.374;8.006;2022-07-23T02:46:16;23.10;56.40
30520;DHT22;17300;50.374;8.006;2022-07-23T02:48:44;23.10;56.50
30520;DHT22;17300;50.374;8.006;2022-07-23T02:51:11;23.10;56.60
30520;DHT22;17300;50.374;8.006;2022-07-23T02:53:37;23.10;56.40
30520;DHT22;17300;50.374;8.006;2022-07-23T02:56:04;23.10;56.40
30520;DHT22;17300;50.374;8.006;2022-07-23T02:58:31;23.00;56.30
30520;DHT22;17300;50.374;8.006;2022-07-23T03:00:58;23.10;56.30
30520;DHT22;17300;50.374;8.006;2022-07-23T03:03:25;23.10;56.40
30520;DHT22;17300;50.374;8.006;2022-07-23T03:05:53;23.00;56.30
30520;DHT22;17300;50.374;8.006;2022-07-23T03:08:20;23.00;56.50
30520;DHT22;17300;50.374;8.006;2022-07-23T03:10:46;23.00;56.60
30520;DHT22;17300;50.374;8.006;2022-07-23T03:13:13;23.00;56.70
30520;DHT22;17300;50.374;8.006;2022-07-23T03:15:40;23.00;56.70
30520;DHT22;17300;50.374;8.006;2022-07-23T03:18:07;23.00;56.80
30520;DHT22;17300;50.374;8.006;2022-07-23T03:20:33;23.00;56.90
30520;DHT22;17300;50.374;8.006;2022-07-23T03:23:01;23.00;56.90
30520;DHT22;17300;50.374;8.006;2022-07-23T03:25:28;23.00;57.00
30520;DHT22;17300;50.374;8.006;2022-07-23T03:27:55;23.00;57.00
30520;DHT22;17300;50.374;8.006;2022-07-23T03:30:22;22.90;57.00
30520;DHT22;17300;50.374;8.006;2022-07-23T03:32:48;23.00;57.00
30520;DHT22;17300;50.374;8.006;2022-07-23T03:35:15;23.00;56.90
30520;DHT22;17300;50.374;8.006;2022-07-23T03:37:42;23.00;56.80
30520;DHT22;17300;50.374;8.006;2022-07-23T03:40:11;23.00;56.70
30520;DHT22;17300;50.374;8.006;2022-07-23T03:42:38;23.00;56.70
30520;DHT22;17300;50.374;8.006;2022-07-23T03:45:07;23.00;56.60
30520;DHT22;17300;50.374;8.006;2022-07-23T03:47:34;23.00;56.60
30520;DHT22;17300;50.374;8.006;2022-07-23T03:50:00;23.00;56.60
30520;DHT22;17300;50.374;8.006;2022-07-23T03:52:27;22.90;56.70
30520;DHT22;17300;50.374;8.006;2022-07-23T03:54:54;22.90;56.80
30520;DHT22;17300;50.374;8.006;2022-07-23T03:57:22;22.90;56.90
30520;DHT22;17300;50.374;8.006;2022-07-23T03:59:49;22.80;56.90
30520;DHT22;17300;50.374;8.006;2022-07-23T04:02:15;22.80;56.90
30520;DHT22;17300;50.374;8.006;2022-07-23T04:04:42;22.80;57.00
30520;DHT22;17300;50.374;8.006;2022-07-23T04:07:09;22.80;57.10
30520;DHT22;17300;50.374;8.006;2022-07-23T04:09:36;22.80;57.20
30520;DHT22;17300;50.374;8.006;2022-07-23T04:12:03;22.70;57.20
30520;DHT22;17300;50.374;8.006;2022-07-23T04:14:31;22.70;57.20
30520;DHT22;17300;50.374;8.006;2022-07-23T04:16:58;22.70;57.30
30520;DHT22;17300;50.374;8.006;2022-07-23T04:19:25;22.70;57.30
30520;DHT22;17300;50.374;8.006;2022-07-23T04:21:52;22.70;57.40
30520;DHT22;17300;50.374;8.006;2022-07-23T04:24:19;22.60;57.40
30520;DHT22;17300;50.374;8.006;2022-07-23T04:26:46;22.60;57.50
30520;DHT22;17300;50.374;8.006;2022-07-23T04:29:12;22.60;57.50
30520;DHT22;17300;50.374;8.006;2022-07-23T04:31:40;22.60;57.60
30520;DHT22;17300;50.374;8.006;2022-07-23T04:34:07;22.60;57.80
30520;DHT22;17300;50.374;8.006;2022-07-23T04:36:34;22.60;57.70
30520;DHT22;17300;50.374;8.006;2022-07-23T04:39:00;22.60;57.80
30520;DHT22;17300;50.374;8.006;2022-07-23T04:41:27;22.60;57.90
30520;DHT22;17300;50.374;8.006;2022-07-23T04:43:54;22.60;57.90
30520;DHT22;17300;50.374;8.006;2022-07-23T04:46:21;22.60;58.00
30520;DHT22;17300;50.374;8.006;2022-07-23T04:48:49;22.50;57.90
30520;DHT22;17300;50.374;8.006;2022-07-23T04:51:16;22.60;58.10
30520;DHT22;17300;50.374;8.006;2022-07-23T04:53:43;22.60;58.10
30520;DHT22;17300;50.374;8.006;2022-07-23T04:56:09;22.60;58.10
30520;DHT22;17300;50.374;8.006;2022-07-23T04:58:36;22.60;58.30
30520;DHT22;17300;50.374;8.006;2022-07-23T05:01:03;22.60;58.30
30520;DHT22;17300;50.374;8.006;2022-07-23T05:03:30;22.60;58.30
30520;DHT22;17300;50.374;8.006;2022-07-23T05:05:58;22.60;58.30
30520;DHT22;17300;50.374;8.006;2022-07-23T05:08:24;22.70;58.40
30520;DHT22;17300;50.374;8.006;2022-07-23T05:10:51;22.70;58.40
30520;DHT22;17300;50.374;8.006;2022-07-23T05:13:18;22.70;58.40
30520;DHT22;17300;50.374;8.006;2022-07-23T05:15:45;22.70;58.40
30520;DHT22;17300;50.374;8.006;2022-07-23T05:18:12;22.80;58.50
30520;DHT22;17300;50.374;8.006;2022-07-23T05:20:39;22.80;58.50
30520;DHT22;17300;50.374;8.006;2022-07-23T05:23:07;22.80;58.50
30520;DHT22;17300;50.374;8.006;2022-07-23T05:25:35;22.90;58.60
30520;DHT22;17300;50.374;8.006;2022-07-23T05:28:02;23.00;58.60
30520;DHT22;17300;50.374;8.006;2022-07-23T05:30:29;23.10;58.70
30520;DHT22;17300;50.374;8.006;2022-07-23T05:32:56;23.10;58.70
30520;DHT22;17300;50.374;8.006;2022-07-23T05:35:23;23.20;58.80
30520;DHT22;17300;50.374;8.006;2022-07-23T05:37:49;23.30;58.80
30520;DHT22;17300;50.374;8.006;2022-07-23T05:40:19;23.40;58.70
30520;DHT22;17300;50.374;8.006;2022-07-23T05:42:46;23.50;58.80
30520;DHT22;17300;50.374;8.006;2022-07-23T05:45:13;23.60;58.90
30520;DHT22;17300;50.374;8.006;2022-07-23T05:47:43;23.70;59.00
30520;DHT22;17300;50.374;8.006;2022-07-23T05:50:11;24.00;59.40
30520;DHT22;17300;50.374;8.006;2022-07-23T05:52:38;24.00;59.30
30520;DHT22;17300;50.374;8.006;2022-07-23T05:55:06;24.20;59.30
30520;DHT22;17300;50.374;8.006;2022-07-23T05:57:34;24.40;59.40
30520;DHT22;17300;50.374;8.006;2022-07-23T06:00:03;24.60;59.60
30520;DHT22;17300;50.374;8.006;2022-07-23T06:02:30;24.90;59.50
30520;DHT22;17300;50.374;8.006;2022-07-23T06:04:57;25.20;59.40
30520;DHT22;17300;50.374;8.006;2022-07-23T06:07:24;25.50;59.40
30520;DHT22;17300;50.374;8.006;2022-07-23T06:09:51;25.90;59.80
30520;DHT22;17300;50.374;8.006;2022-07-23T06:12:18;26.30;60.90
30520;DHT22;17300;50.374;8.006;2022-07-23T06:14:46;26.80;61.70
30520;DHT22;17300;50.374;8.006;2022-07-23T06:17:15;27.50;61.40
30520;DHT22;17300;50.374;8.006;2022-07-23T06:19:42;28.20;60.60
30520;DHT22;17300;50.374;8.006;2022-07-23T06:22:09;28.90;59.70
30520;DHT22;17300;50.374;8.006;2022-07-23T06:24:36;29.60;58.90
30520;DHT22;17300;50.374;8.006;2022-07-23T06:27:03;30.20;57.20
30520;DHT22;17300;50.374;8.006;2022-07-23T06:29:29;30.70;55.40
30520;DHT22;17300;50.374;8.006;2022-07-23T06:31:57;31.20;54.40
30520;DHT22;17300;50.374;8.006;2022-07-23T06:37:00;31.70;51.50
30520;DHT22;17300;50.374;8.006;2022-07-23T06:39:26;31.90;50.60
30520;DHT22;17300;50.374;8.006;2022-07-23T06:41:54;32.10;50.90
30520;DHT22;17300;50.374;8.006;2022-07-23T06:44:21;32.30;51.00
30520;DHT22;17300;50.374;8.006;2022-07-23T06:46:48;32.70;51.00
30520;DHT22;17300;50.374;8.006;2022-07-23T06:49:16;33.30;51.00
30520;DHT22;17300;50.374;8.006;2022-07-23T06:51:42;33.80;49.60
30520;DHT22;17300;50.374;8.006;2022-07-23T06:54:09;34.20;47.90
30520;DHT22;17300;50.374;8.006;2022-07-23T06:56:36;34.40;45.90
30520;DHT22;17300;50.374;8.006;2022-07-23T06:59:03;34.50;44.60
30520;DHT22;17300;50.374;8.006;2022-07-23T07:01:29;34.50;43.70
30520;DHT22;17300;50.374;8.006;2022-07-23T07:03:56;34.50;43.90
30520;DHT22;17300;50.374;8.006;2022-07-23T07:06:24;34.60;43.60
30520;DHT22;17300;50.374;8.006;2022-07-23T07:08:51;34.60;42.80
30520;DHT22;17300;50.374;8.006;2022-07-23T07:11:20;34.50;42.30
30520;DHT22;17300;50.374;8.006;2022-07-23T07:13:49;34.40;41.80
30520;DHT22;17300;50.374;8.006;2022-07-23T07:16:15;34.30;41.40
30520;DHT22;17300;50.374;8.006;2022-07-23T07:18:42;34.10;41.30
30520;DHT22;17300;50.374;8.006;2022-07-23T07:21:09;34.00;41.10
30520;DHT22;17300;50.374;8.006;2022-07-23T07:23:37;33.90;41.50
30520;DHT22;17300;50.374;8.006;2022-07-23T07:26:04;33.80;41.20
30520;DHT22;17300;50.374;8.006;2022-07-23T07:28:31;33.90;41.90
30520;DHT22;17300;50.374;8.006;2022-07-23T07:30:58;34.20;42.70
30520;DHT22;17300;50.374;8.006;2022-07-23T07:33:24;34.50;43.60
30520;DHT22;17300;50.374;8.006;2022-07-23T07:35:51;35.00;42.80
30520;DHT22;17300;50.374;8.006;2022-07-23T07:38:29;35.50;42.20
30520;DHT22;17300;50.374;8.006;2022-07-23T07:40:57;36.20;40.90
30520;DHT22;17300;50.374;8.006;2022-07-23T07:43:24;36.80;41.40
30520;DHT22;17300;50.374;8.006;2022-07-23T07:45:52;37.20;39.80
30520;DHT22;17300;50.374;8.006;2022-07-23T07:48:21;37.70;38.60
30520;DHT22;17300;50.374;8.006;2022-07-23T07:50:48;38.10;38.10
30520;DHT22;17300;50.374;8.006;2022-07-23T07:53:15;38.60;38.10
30520;DHT22;17300;50.374;8.006;2022-07-23T07:55:42;39.10;37.90
30520;DHT22;17300;50.374;8.006;2022-07-23T07:58:10;39.70;37.30
30520;DHT22;17300;50.374;8.006;2022-07-23T08:00:36;40.30;36.70
30520;DHT22;17300;50.374;8.006;2022-07-23T08:03:03;40.90;35.90
30520;DHT22;17300;50.374;8.006;2022-07-23T08:05:30;41.40;35.30
30520;DHT22;17300;50.374;8.006;2022-07-23T08:07:58;42.00;34.50
30520;DHT22;17300;50.374;8.006;2022-07-23T08:10:26;42.60;33.50
30520;DHT22;17300;50.374;8.006;2022-07-23T08:12:54;43.10;32.70
30520;DHT22;17300;50.374;8.006;2022-07-23T08:15:25;43.30;31.00
30520;DHT22;17300;50.374;8.006;2022-07-23T08:18:24;43.30;29.70
30520;DHT22;17300;50.374;8.006;2022-07-23T08:20:55;43.20;30.00
30520;DHT22;17300;50.374;8.006;2022-07-23T08:23:22;43.10;29.90
30520;DHT22;17300;50.374;8.006;2022-07-23T08:25:50;43.10;29.90
30520;DHT22;17300;50.374;8.006;2022-07-23T08:28:18;43.10;30.00
30520;DHT22;17300;50.374;8.006;2022-07-23T08:30:55;43.20;29.90
30520;DHT22;17300;50.374;8.006;2022-07-23T08:33:22;43.60;29.60
30520;DHT22;17300;50.374;8.006;2022-07-23T08:35:50;44.00;29.80
30520;DHT22;17300;50.374;8.006;2022-07-23T08:38:20;44.40;29.40
30520;DHT22;17300;50.374;8.006;2022-07-23T08:40:48;44.90;29.10
30520;DHT22;17300;50.374;8.006;2022-07-23T08:43:17;45.40;28.50
30520;DHT22;17300;50.374;8.006;2022-07-23T08:45:46;45.80;28.10
30520;DHT22;17300;50.374;8.006;2022-07-23T08:48:16;46.20;27.70
30520;DHT22;17300;50.374;8.006;2022-07-23T08:50:44;46.50;26.90
30520;DHT22;17300;50.374;8.006;2022-07-23T08:53:12;46.80;26.80
30520;DHT22;17300;50.374;8.006;2022-07-23T08:55:39;47.10;26.30
30520;DHT22;17300;50.374;8.006;2022-07-23T08:58:06;47.30;26.20
30520;DHT22;17300;50.374;8.006;2022-07-23T09:00:32;47.50;26.10
30520;DHT22;17300;50.374;8.006;2022-07-23T09:02:59;47.70;25.80
30520;DHT22;17300;50.374;8.006;2022-07-23T09:05:28;47.80;25.20
30520;DHT22;17300;50.374;8.006;2022-07-23T09:08:11;47.80;24.90
30520;DHT22;17300;50.374;8.006;2022-07-23T09:10:46;47.60;24.50
30520;DHT22;17300;50.374;8.006;2022-07-23T09:13:28;47.30;24.50
30520;DHT22;17300;50.374;8.006;2022-07-23T09:15:57;47.00;24.70
30520;DHT22;17300;50.374;8.006;2022-07-23T09:18:35;46.70;24.50
30520;DHT22;17300;50.374;8.006;2022-07-23T09:21:16;46.10;24.40
30520;DHT22;17300;50.374;8.006;2022-07-23T09:23:46;45.40;24.20
30520;DHT22;17300;50.374;8.006;2022-07-23T09:26:30;44.80;24.50
30520;DHT22;17300;50.374;8.006;2022-07-23T09:29:00;44.10;24.80
30520;DHT22;17300;50.374;8.006;2022-07-23T09:31:32;43.40;25.10
30520;DHT22;17300;50.374;8.006;2022-07-23T09:34:07;42.90;25.40
30520;DHT22;17300;50.374;8.006;2022-07-23T09:36:35;42.50;26.10
30520;DHT22;17300;50.374;8.006;2022-07-23T09:41:37;42.30;27.20
30520;DHT22;17300;50.374;8.006;2022-07-23T09:44:12;42.50;27.40
30520;DHT22;17300;50.374;8.006;2022-07-23T09:46:40;42.90;27.50
30520;DHT22;17300;50.374;8.006;2022-07-23T09:49:12;43.30;27.60
30520;DHT22;17300;50.374;8.006;2022-07-23T09:51:46;43.80;27.40
30520;DHT22;17300;50.374;8.006;2022-07-23T09:54:38;44.50;26.60
30520;DHT22;17300;50.374;8.006;2022-07-23T09:57:07;44.80;26.40
30520;DHT22;17300;50.374;8.006;2022-07-23T09:59:39;44.80;25.40
30520;DHT22;17300;50.374;8.006;2022-07-23T10:02:08;44.90;25.60
30520;DHT22;17300;50.374;8.006;2022-07-23T10:04:35;44.80;25.10
30520;DHT22;17300;50.374;8.006;2022-07-23T10:07:06;44.70;24.80
30520;DHT22;17300;50.374;8.006;2022-07-23T10:09:35;44.60;25.00
30520;DHT22;17300;50.374;8.006;2022-07-23T10:12:04;44.60;25.30
30520;DHT22;17300;50.374;8.006;2022-07-23T10:14:45;44.60;25.10
30520;DHT22;17300;50.374;8.006;2022-07-23T10:17:11;44.80;25.60
30520;DHT22;17300;50.374;8.006;2022-07-23T10:19:38;45.00;25.80
30520;DHT22;17300;50.374;8.006;2022-07-23T10:22:07;45.30;25.30
30520;DHT22;17300;50.374;8.006;2022-07-23T10:24:50;45.40;24.50
30520;DHT22;17300;50.374;8.006;2022-07-23T10:27:51;45.50;24.50
30520;DHT22;17300;50.374;8.006;2022-07-23T10:30:25;45.60;25.00
30520;DHT22;17300;50.374;8.006;2022-07-23T10:33:09;45.70;24.70
30520;DHT22;17300;50.374;8.006;2022-07-23T10:35:43;45.90;24.60
30520;DHT22;17300;50.374;8.006;2022-07-23T10:38:25;46.10;24.40
30520;DHT22;17300;50.374;8.006;2022-07-23T10:40:57;46.40;24.30
30520;DHT22;17300;50.374;8.006;2022-07-23T10:43:25;46.70;24.00
30520;DHT22;17300;50.374;8.006;2022-07-23T10:45:52;46.80;23.70
30520;DHT22;17300;50.374;8.006;2022-07-23T10:48:21;46.80;23.20
30520;DHT22;17300;50.374;8.006;2022-07-23T10:51:08;46.90;23.50
30520;DHT22;17300;50.374;8.006;2022-07-23T10:53:56;47.00;23.70
30520;DHT22;17300;50.374;8.006;2022-07-23T10:56:49;47.20;23.90
30520;DHT22;17300;50.374;8.006;2022-07-23T10:59:21;47.40;23.40
30520;DHT22;17300;50.374;8.006;2022-07-23T11:01:50;47.60;23.20
30520;DHT22;17300;50.374;8.006;2022-07-23T11:04:17;47.80;23.00
30520;DHT22;17300;50.374;8.006;2022-07-23T11:07:08;48.10;23.00
30520;DHT22;17300;50.374;8.006;2022-07-23T11:09:43;48.10;23.00
30520;DHT22;17300;50.374;8.006;2022-07-23T11:12:33;48.30;22.30
30520;DHT22;17300;50.374;8.006;2022-07-23T11:15:06;48.30;22.50
30520;DHT22;17300;50.374;8.006;2022-07-23T11:17:36;48.20;21.90
30520;DHT22;17300;50.374;8.006;2022-07-23T11:20:29;48.20;22.10
30520;DHT22;17300;50.374;8.006;2022-07-23T11:22:58;48.20;22.50
30520;DHT22;17300;50.374;8.006;2022-07-23T11:25:33;48.30;21.80
30520;DHT22;17300;50.374;8.006;2022-07-23T11:28:16;48.30;22.10
30520;DHT22;17300;50.374;8.006;2022-07-23T11:30:44;48.20;21.10
30520;DHT22;17300;50.374;8.006;2022-07-23T11:33:20;48.10;21.10
30520;DHT22;17300;50.374;8.006;2022-07-23T11:35:51;47.80;21.10
30520;DHT22;17300;50.374;8.006;2022-07-23T11:38:25;47.50;20.80
30520;DHT22;17300;50.374;8.006;2022-07-23T11:41:07;47.20;20.70
30520;DHT22;17300;50.374;8.006;2022-07-23T11:43:40;46.70;21.00
30520;DHT22;17300;50.374;8.006;2022-07-23T11:46:09;46.20;20.90
30520;DHT22;17300;50.374;8.006;2022-07-23T11:48:41;45.70;21.00
30520;DHT22;17300;50.374;8.006;2022-07-23T11:51:08;45.30;21.30
30520;DHT22;17300;50.374;8.006;2022-07-23T11:53:35;44.90;21.20
30520;DHT22;17300;50.374;8.006;2022-07-23T11:56:08;44.50;21.10
30520;DHT22;17300;50.374;8.006;2022-07-23T11:58:35;43.90;21.00
30520;DHT22;17300;50.374;8.006;2022-07-23T12:01:02;43.40;21.50
30520;DHT22;17300;50.374;8.006;2022-07-23T12:03:29;42.90;21.70
30520;DHT22;17300;50.374;8.006;2022-07-23T12:05:56;42.40;22.50
30520;DHT22;17300;50.374;8.006;2022-07-23T12:08:24;42.00;22.10
30520;DHT22;17300;50.374;8.006;2022-07-23T12:10:50;41.60;22.30
30520;DHT22;17300;50.374;8.006;2022-07-23T12:13:20;41.30;22.70
30520;DHT22;17300;50.374;8.006;2022-07-23T12:15:49;40.90;22.70
30520;DHT22;17300;50.374;8.006;2022-07-23T12:18:20;40.50;23.10
30520;DHT22;17300;50.374;8.006;2022-07-23T12:20:49;40.30;23.30
30520;DHT22;17300;50.374;8.006;2022-07-23T12:23:17;40.00;23.30
30520;DHT22;17300;50.374;8.006;2022-07-23T12:25:45;39.70;23.50
30520;DHT22;17300;50.374;8.006;2022-07-23T12:28:28;39.40;23.50
30520;DHT22;17300;50.374;8.006;2022-07-23T12:30:56;39.10;24.10
30520;DHT22;17300;50.374;8.006;2022-07-23T12:33:24;38.90;23.80
30520;DHT22;17300;50.374;8.006;2022-07-23T12:35:53;38.60;24.00
30520;DHT22;17300;50.374;8.006;2022-07-23T12:38:22;38.40;24.20
30520;DHT22;17300;50.374;8.006;2022-07-23T12:40:51;38.20;24.20
30520;DHT22;17300;50.374;8.006;2022-07-23T12:43:21;38.00;24.50
30520;DHT22;17300;50.374;8.006;2022-07-23T12:45:50;37.80;24.80
30520;DHT22;17300;50.374;8.006;2022-07-23T12:48:20;37.70;25.20
30520;DHT22;17300;50.374;8.006;2022-07-23T12:50:53;37.60;25.20
30520;DHT22;17300;50.374;8.006;2022-07-23T12:53:22;37.40;25.20
30520;DHT22;17300;50.374;8.006;2022-07-23T12:55:53;37.20;25.30
30520;DHT22;17300;50.374;8.006;2022-07-23T12:58:23;37.00;25.30
30520;DHT22;17300;50.374;8.006;2022-07-23T13:00:53;36.70;25.20
30520;DHT22;17300;50.374;8.006;2022-07-23T13:03:22;36.40;25.40
30520;DHT22;17300;50.374;8.006;2022-07-23T13:05:49;36.20;25.90
30520;DHT22;17300;50.374;8.006;2022-07-23T13:08:16;35.90;26.20
30520;DHT22;17300;50.374;8.006;2022-07-23T13:10:43;35.80;26.50
30520;DHT22;17300;50.374;8.006;2022-07-23T13:13:12;35.70;26.70
30520;DHT22;17300;50.374;8.006;2022-07-23T13:15:39;35.60;26.90
30520;DHT22;17300;50.374;8.006;2022-07-23T13:18:07;35.50;27.00
30520;DHT22;17300;50.374;8.006;2022-07-23T13:20:34;35.50;27.20
30520;DHT22;17300;50.374;8.006;2022-07-23T13:23:02;35.40;27.20
30520;DHT22;17300;50.374;8.006;2022-07-23T13:25:28;35.30;27.20
30520;DHT22;17300;50.374;8.006;2022-07-23T13:27:55;35.20;27.30
30520;DHT22;17300;50.374;8.006;2022-07-23T13:30:22;35.20;27.60
30520;DHT22;17300;50.374;8.006;2022-07-23T13:32:48;35.10;27.60
30520;DHT22;17300;50.374;8.006;2022-07-23T13:35:17;35.10;27.60
30520;DHT22;17300;50.374;8.006;2022-07-23T13:37:43;35.00;27.60
30520;DHT22;17300;50.374;8.006;2022-07-23T13:40:11;34.90;27.50
30520;DHT22;17300;50.374;8.006;2022-07-23T13:42:37;34.90;27.50
30520;DHT22;17300;50.374;8.006;2022-07-23T13:45:06;34.90;27.80
30520;DHT22;17300;50.374;8.006;2022-07-23T13:47:33;34.90;27.90
30520;DHT22;17300;50.374;8.006;2022-07-23T13:50:00;34.80;27.80
30520;DHT22;17300;50.374;8.006;2022-07-23T13:52:28;34.80;27.80
30520;DHT22;17300;50.374;8.006;2022-07-23T13:54:54;34.80;27.60
30520;DHT22;17300;50.374;8.006;2022-07-23T13:57:21;34.80;27.70
30520;DHT22;17300;50.374;8.006;2022-07-23T13:59:48;34.80;27.70
30520;DHT22;17300;50.374;8.006;2022-07-23T14:02:17;34.80;27.90
30520;DHT22;17300;50.374;8.006;2022-07-23T14:04:44;34.70;27.80
30520;DHT22;17300;50.374;8.006;2022-07-23T14:07:10;34.70;27.90
30520;DHT22;17300;50.374;8.006;2022-07-23T14:09:39;34.70;27.80
30520;DHT22;17300;50.374;8.006;2022-07-23T14:12:06;34.60;27.80
30520;DHT22;17300;50.374;8.006;2022-07-23T14:14:33;34.60;28.00
30520;DHT22;17300;50.374;8.006;2022-07-23T14:17:00;34.60;28.00
30520;DHT22;17300;50.374;8.006;2022-07-23T14:19:27;34.50;27.80
30520;DHT22;17300;50.374;8.006;2022-07-23T14:21:54;34.40;27.70
30520;DHT22;17300;50.374;8.006;2022-07-23T14:24:20;34.30;27.90
30520;DHT22;17300;50.374;8.006;2022-07-23T14:26:49;34.30;27.90
30520;DHT22;17300;50.374;8.006;2022-07-23T14:29:15;34.20;27.90
30520;DHT22;17300;50.374;8.006;2022-07-23T14:31:42;34.10;27.90
30520;DHT22;17300;50.374;8.006;2022-07-23T14:34:09;33.90;27.80
30520;DHT22;17300;50.374;8.006;2022-07-23T14:36:37;33.90;27.70
30520;DHT22;17300;50.374;8.006;2022-07-23T14:39:04;33.80;27.90
30520;DHT22;17300;50.374;8.006;2022-07-23T14:41:31;33.60;27.90
30520;DHT22;17300;50.374;8.006;2022-07-23T14:43:59;33.50;28.00
30520;DHT22;17300;50.374;8.006;2022-07-23T14:46:25;33.40;28.00
30520;DHT22;17300;50.374;8.006;2022-07-23T14:48:53;33.30;28.20
30520;DHT22;17300;50.374;8.006;2022-07-23T14:51:20;33.20;28.40
30520;DHT22;17300;50.374;8.006;2022-07-23T14:53:47;33.10;28.50
30520;DHT22;17300;50.374;8.006;2022-07-23T14:56:13;33.00;28.50
30520;DHT22;17300;50.374;8.006;2022-07-23T14:58:40;32.90;28.60
30520;DHT22;17300;50.374;8.006;2022-07-23T15:01:09;32.80;28.60
30520;DHT22;17300;50.374;8.006;2022-07-23T15:03:36;32.70;28.80
30520;DHT22;17300;50.374;8.006;2022-07-23T15:06:03;32.70;28.80
30520;DHT22;17300;50.374;8.006;2022-07-23T15:08:30;32.60;28.70
30520;DHT22;17300;50.374;8.006;2022-07-23T15:10:57;32.50;28.80
30520;DHT22;17300;50.374;8.006;2022-07-23T15:13:23;32.40;28.80
30520;DHT22;17300;50.374;8.006;2022-07-23T15:15:50;32.40;28.80
30520;DHT22;17300;50.374;8.006;2022-07-23T15:18:18;32.30;28.90
30520;DHT22;17300;50.374;8.006;2022-07-23T15:20:45;32.20;28.90
30520;DHT22;17300;50.374;8.006;2022-07-23T15:23:12;32.20;29.00
30520;DHT22;17300;50.374;8.006;2022-07-23T15:25:39;32.10;29.00
30520;DHT22;17300;50.374;8.006;2022-07-23T15:28:05;32.10;29.10
30520;DHT22;17300;50.374;8.006;2022-07-23T15:30:32;32.00;29.10
30520;DHT22;17300;50.374;8.006;2022-07-23T15:32:59;31.90;29.20
30520;DHT22;17300;50.374;8.006;2022-07-23T15:35:27;31.90;29.30
30520;DHT22;17300;50.374;8.006;2022-07-23T15:37:55;31.80;29.40
30520;DHT22;17300;50.374;8.006;2022-07-23T15:40:22;31.80;29.40
30520;DHT22;17300;50.374;8.006;2022-07-23T15:42:49;31.70;29.40
30520;DHT22;17300;50.374;8.006;2022-07-23T15:45:16;31.70;29.70